Аэропорт
Ош (UCFO)

 UCFO / OSS
ЗЦ Центральная Азия
Ош (UCFO)
Ош (UCFO)
 40.60900, 72.79330  / 2927 ft

 UCFO 201130Z 04003MPS 9999 NSC 10/03 Q1021 R12/0///95 NOSIG
 TAF UCFO 200449Z 2006/2106 32003G08MPS 3000 BR FEW050CB TEMPO 2006/2012 09003G08MPS 1500 BR FU SCT050CB BECMG 2012/2014 14003G08MPS 1500 BR FU TEMPO 2012/2018 VRB01MPS 0800 FZFG FU SCT005
показать схемы



2020 © VATRUS division (Privacy Policy)